Time;durP1;ratioP1;P1;durP2;ratioP2;P2;SDS_P1;SDS_P2;PMS_P1;PMS_P2;Temp;Humidity;BMP_temperature;BMP_pressure;BME280_temperature;BME280_humidity;BME280_pressure;Samples;Min_cycle;Max_cycle;Signal;HPM_P1;HPM_P2
2023/09/27 00:01:18;;;;;;;14.80;11.30;;;15.10;99.90;;;;;;5050913;28;20064;-39
2023/09/27 00:03:47;;;;;;;15.32;11.57;;;15.10;99.90;;;;;;5051920;28;20072;-41
2023/09/27 00:06:15;;;;;;;18.42;10.82;;;15.00;99.90;;;;;;5043258;28;20248;-41
2023/09/27 00:08:42;;;;;;;16.05;11.10;;;15.00;99.90;;;;;;5045463;28;20566;-38
2023/09/27 00:11:09;;;;;;;15.60;11.82;;;15.00;99.90;;;;;;5043743;28;20502;-39
2023/09/27 00:13:37;;;;;;;17.17;11.48;;;14.90;99.90;;;;;;5047219;28;20415;-40
2023/09/27 00:16:04;;;;;;;16.73;11.85;;;14.90;99.90;;;;;;5033690;28;20089;-37
2023/09/27 00:18:31;;;;;;;16.17;11.45;;;14.90;99.90;;;;;;5043426;28;20057;-41
2023/09/27 00:20:59;;;;;;;15.32;10.68;;;14.90;99.90;;;;;;5045696;28;20445;-38
2023/09/27 00:23:26;;;;;;;20.27;11.48;;;14.90;99.90;;;;;;5036875;28;20107;-40
2023/09/27 00:25:53;;;;;;;17.83;11.57;;;14.90;99.90;;;;;;5037831;28;20858;-39
2023/09/27 00:28:21;;;;;;;16.60;11.52;;;14.90;99.90;;;;;;5041526;28;20486;-39
2023/09/27 00:30:51;;;;;;;16.80;11.80;;;14.80;99.90;;;;;;5047500;28;20127;-40
2023/09/27 00:33:19;;;;;;;17.55;10.50;;;14.80;99.90;;;;;;5044079;28;20073;-40
2023/09/27 00:35:50;;;;;;;18.38;11.98;;;14.90;99.90;;;;;;5039321;28;20108;-40
2023/09/27 00:38:17;;;;;;;18.48;11.32;;;14.80;99.90;;;;;;5052795;28;20046;-40
2023/09/27 00:40:46;;;;;;;17.35;11.55;;;14.80;99.90;;;;;;5044562;28;20049;-41
2023/09/27 00:43:25;;;;;;;16.17;10.90;;;14.80;99.90;;;;;;5038675;28;20387;-38
2023/09/27 00:45:56;;;;;;;18.95;11.77;;;14.70;99.90;;;;;;5043932;28;20048;-41
2023/09/27 00:48:24;;;;;;;;;;;14.80;99.90;;;;;;5036901;28;20044;-41
2023/09/27 00:50:54;;;;;;;20.50;11.63;;;14.70;99.90;;;;;;5040665;28;19955;-40
2023/09/27 00:53:24;;;;;;;22.40;12.25;;;14.70;99.90;;;;;;5029450;28;20517;-39
2023/09/27 00:55:52;;;;;;;20.10;11.82;;;14.70;99.90;;;;;;5040133;28;20055;-38
2023/09/27 00:58:20;;;;;;;17.38;11.10;;;14.70;99.90;;;;;;5042867;28;20083;-39
2023/09/27 01:00:50;;;;;;;16.42;11.43;;;14.70;99.90;;;;;;5048825;28;20071;-37
2023/09/27 01:03:18;;;;;;;18.50;11.23;;;14.70;99.90;;;;;;5045176;28;20045;-40
2023/09/27 01:05:47;;;;;;;21.17;11.70;;;14.70;99.90;;;;;;5042785;28;20048;-42
2023/09/27 01:08:14;;;;;;;17.85;11.95;;;14.70;99.90;;;;;;5049223;28;20072;-41
2023/09/27 01:10:43;;;;;;;15.95;11.20;;;14.70;99.90;;;;;;5042090;28;20034;-41
2023/09/27 01:13:11;;;;;;;16.80;10.82;;;14.70;99.90;;;;;;5061934;28;20119;-41
2023/09/27 01:15:39;;;;;;;19.30;11.13;;;14.60;99.90;;;;;;5064713;28;20170;-40
2023/09/27 01:18:06;;;;;;;17.67;10.98;;;14.60;99.90;;;;;;5060291;28;20465;-39
2023/09/27 01:20:34;;;;;;;16.92;11.18;;;14.60;99.90;;;;;;5051347;28;20079;-38
2023/09/27 01:23:03;;;;;;;16.30;10.60;;;14.60;99.90;;;;;;5049016;28;20137;-41
2023/09/27 01:25:35;;;;;;;14.75;10.25;;;14.60;99.90;;;;;;5052265;28;20057;-40
2023/09/27 01:28:11;;;;;;;15.63;10.73;;;14.60;99.90;;;;;;5039980;28;20086;-43
2023/09/27 01:30:38;;;;;;;15.70;10.82;;;14.70;99.90;;;;;;5049163;28;20044;-39
2023/09/27 01:33:07;;;;;;;16.92;11.50;;;14.70;99.90;;;;;;5050223;28;20061;-39
2023/09/27 01:35:36;;;;;;;16.00;10.57;;;14.60;99.90;;;;;;5052360;28;20470;-41
2023/09/27 01:38:04;;;;;;;17.35;10.65;;;14.50;99.90;;;;;;5048107;28;20406;-39
2023/09/27 01:40:35;;;;;;;17.35;12.13;;;14.50;99.90;;;;;;5047772;28;20044;-41
2023/09/27 01:43:04;;;;;;;14.50;10.02;;;14.50;99.90;;;;;;5050965;28;20056;-39
2023/09/27 01:45:32;;;;;;;13.52;10.55;;;14.40;99.90;;;;;;5043306;28;20572;-39
2023/09/27 01:48:00;;;;;;;16.73;10.77;;;14.40;99.90;;;;;;5045424;28;20032;-39
2023/09/27 01:50:30;;;;;;;15.95;11.10;;;14.40;99.90;;;;;;5060995;28;20485;-41
2023/09/27 01:52:57;;;;;;;16.75;10.93;;;14.30;99.90;;;;;;5044501;28;20236;-38
2023/09/27 01:55:25;;;;;;;17.23;11.45;;;14.30;99.90;;;;;;5042014;28;20041;-39
2023/09/27 01:57:53;;;;;;;13.90;10.15;;;14.20;99.90;;;;;;5040407;28;20076;-40
2023/09/27 02:00:20;;;;;;;15.50;9.45;;;14.20;99.90;;;;;;5049621;28;20405;-41
2023/09/27 02:02:57;;;;;;;18.60;10.45;;;14.10;99.90;;;;;;5039639;28;20433;-38
2023/09/27 02:05:27;;;;;;;13.85;9.93;;;14.10;99.90;;;;;;5062272;28;20040;-39
2023/09/27 02:07:55;;;;;;;18.90;10.60;;;14.10;99.90;;;;;;5057284;28;20049;-40
2023/09/27 02:10:23;;;;;;;14.90;11.48;;;14.10;99.90;;;;;;5048663;28;20080;-41
2023/09/27 02:12:50;;;;;;;14.93;11.15;;;14.10;99.90;;;;;;5048421;28;20033;-40
2023/09/27 02:15:18;;;;;;;15.77;10.68;;;14.10;99.90;;;;;;5049467;28;20056;-40
2023/09/27 02:17:45;;;;;;;16.65;10.88;;;14.10;99.90;;;;;;5039667;28;20140;-40
2023/09/27 02:20:14;;;;;;;19.42;10.85;;;14.00;99.90;;;;;;5042213;28;20044;-42
2023/09/27 02:22:41;;;;;;;21.13;11.25;;;14.00;99.90;;;;;;5051168;28;20056;-40
2023/09/27 02:25:13;;;;;;;21.67;10.85;;;14.00;99.90;;;;;;5048479;28;20102;-41
2023/09/27 02:27:42;;;;;;;23.17;11.70;;;13.90;99.90;;;;;;5050504;28;20526;-38
2023/09/27 02:30:14;;;;;;;25.90;12.27;;;13.90;99.90;;;;;;5041717;28;20418;-38
2023/09/27 02:32:43;;;;;;;25.77;13.13;;;13.80;99.90;;;;;;5045872;28;20106;-38
2023/09/27 02:35:15;;;;;;;25.63;13.38;;;13.80;99.90;;;;;;5048521;28;20049;-38
2023/09/27 02:37:46;;;;;;;26.35;14.02;;;13.70;99.90;;;;;;5043432;28;20045;-36
2023/09/27 02:40:15;;;;;;;22.88;13.23;;;13.70;99.90;;;;;;5048136;28;20041;-39
2023/09/27 02:42:47;;;;;;;25.05;12.60;;;13.70;99.90;;;;;;5042909;28;20510;-41
2023/09/27 02:45:14;;;;;;;;;;;13.70;99.90;;;;;;5045948;28;20144;-39
2023/09/27 02:47:46;;;;;;;23.30;10.90;;;13.70;99.90;;;;;;5057771;28;19932;-39
2023/09/27 02:50:14;;;;;;;24.10;12.98;;;13.70;99.90;;;;;;5054629;28;20041;-39
2023/09/27 02:52:43;;;;;;;22.88;12.43;;;13.70;99.90;;;;;;5066734;28;20045;-41
2023/09/27 02:55:12;;;;;;;20.58;12.18;;;13.60;99.90;;;;;;5044304;28;20422;-38
2023/09/27 02:57:40;;;;;;;22.58;12.77;;;13.60;99.90;;;;;;5057007;28;20061;-38
2023/09/27 03:00:08;;;;;;;21.92;11.90;;;13.50;99.90;;;;;;5041810;28;20045;-41
2023/09/27 03:02:37;;;;;;;23.33;12.20;;;13.40;99.90;;;;;;5051123;28;20091;-38
2023/09/27 03:05:07;;;;;;;19.55;11.80;;;13.50;99.90;;;;;;5052725;28;20068;-40
2023/09/27 03:07:38;;;;;;;20.73;11.07;;;13.50;99.90;;;;;;5050969;28;20049;-39
2023/09/27 03:10:10;;;;;;;21.40;11.68;;;13.50;99.90;;;;;;5031241;28;20080;-39
2023/09/27 03:12:39;;;;;;;20.67;11.10;;;13.50;99.90;;;;;;5045696;28;20107;-40
2023/09/27 03:15:11;;;;;;;22.70;11.77;;;13.50;99.90;;;;;;5050427;28;20053;-40
2023/09/27 03:17:42;;;;;;;18.50;12.48;;;13.50;99.90;;;;;;5054099;28;20131;-41
2023/09/27 03:20:16;;;;;;;20.90;12.32;;;13.40;99.90;;;;;;5050507;28;20060;-38
2023/09/27 03:22:48;;;;;;;18.70;11.60;;;13.40;99.90;;;;;;5050182;28;20527;-39
2023/09/27 03:25:19;;;;;;;20.02;12.00;;;13.30;99.90;;;;;;5048044;28;20047;-39
2023/09/27 03:27:47;;;;;;;17.73;12.00;;;13.40;99.90;;;;;;5045719;28;20178;-40
2023/09/27 03:30:17;;;;;;;20.77;12.38;;;13.30;99.90;;;;;;5049623;28;20044;-39
2023/09/27 03:32:45;;;;;;;20.70;12.40;;;13.30;99.90;;;;;;5044248;28;20049;-37
2023/09/27 03:35:13;;;;;;;19.88;12.35;;;13.20;99.90;;;;;;5055291;28;20055;-40
2023/09/27 03:37:41;;;;;;;19.27;11.38;;;13.20;99.90;;;;;;5047745;28;20049;-41
2023/09/27 03:40:13;;;;;;;21.48;12.05;;;13.20;99.90;;;;;;5042730;28;20055;-39
2023/09/27 03:42:45;;;;;;;20.63;11.75;;;13.30;99.90;;;;;;5042611;28;20046;-40
2023/09/27 03:45:16;;;;;;;18.27;11.90;;;13.30;99.90;;;;;;5049604;28;20059;-39
2023/09/27 03:47:47;;;;;;;16.55;10.82;;;13.30;99.90;;;;;;5050539;28;20124;-41
2023/09/27 03:50:20;;;;;;;23.25;12.15;;;13.30;99.90;;;;;;5046886;28;20713;-40
2023/09/27 03:52:48;;;;;;;18.85;12.18;;;13.20;99.90;;;;;;5049149;28;20052;-41
2023/09/27 03:55:15;;;;;;;20.63;13.02;;;13.20;99.90;;;;;;5050135;28;20044;-39
2023/09/27 03:57:43;;;;;;;20.10;13.05;;;13.20;99.90;;;;;;5054404;28;20041;-39
2023/09/27 04:00:13;;;;;;;19.45;13.10;;;13.30;99.90;;;;;;5052751;28;20037;-40
2023/09/27 04:02:44;;;;;;;19.35;12.13;;;13.30;99.90;;;;;;5046234;28;20069;-41
2023/09/27 04:05:13;;;;;;;18.60;12.55;;;13.30;99.90;;;;;;5041024;28;20095;-40
2023/09/27 04:07:40;;;;;;;22.20;13.13;;;13.30;99.90;;;;;;5048449;28;20049;-41
2023/09/27 04:10:08;;;;;;;20.10;12.00;;;13.40;99.90;;;;;;5034384;28;20386;-38
2023/09/27 04:12:36;;;;;;;20.80;11.50;;;13.40;99.90;;;;;;5048123;28;20088;-39
2023/09/27 04:15:08;;;;;;;18.02;11.63;;;13.40;99.90;;;;;;5049573;28;20044;-41
2023/09/27 04:17:37;;;;;;;18.85;11.18;;;13.30;99.90;;;;;;5049528;28;20037;-41
2023/09/27 04:20:07;;;;;;;17.50;11.13;;;13.30;99.90;;;;;;5052366;28;20579;-41
2023/09/27 04:22:35;;;;;;;18.92;11.18;;;13.30;99.90;;;;;;5049368;28;20049;-40
2023/09/27 04:25:02;;;;;;;14.95;10.52;;;13.30;99.90;;;;;;5048567;28;20049;-38
2023/09/27 04:27:30;;;;;;;17.70;11.40;;;13.30;99.90;;;;;;5051640;28;20041;-40
2023/09/27 04:29:57;;;;;;;15.18;10.27;;;13.40;99.90;;;;;;5060354;28;20410;-41
2023/09/27 04:32:25;;;;;;;14.05;10.10;;;13.40;99.90;;;;;;5053745;28;20049;-40
2023/09/27 04:34:53;;;;;;;18.42;10.38;;;13.40;99.90;;;;;;5054251;28;20049;-41
2023/09/27 04:37:20;;;;;;;19.63;11.13;;;13.40;99.90;;;;;;5059453;28;20041;-42
2023/09/27 04:39:47;;;;;;;19.58;11.85;;;13.40;99.90;;;;;;5053665;28;20073;-39
2023/09/27 04:42:15;;;;;;;23.25;11.73;;;13.40;99.90;;;;;;5050600;28;20056;-40
2023/09/27 04:44:42;;;;;;;20.98;11.77;;;13.50;99.90;;;;;;5046033;28;20045;-41
2023/09/27 04:47:09;;;;;;;17.17;11.20;;;13.50;99.90;;;;;;5057647;28;20057;-40
2023/09/27 04:49:37;;;;;;;18.80;11.00;;;13.50;99.90;;;;;;5063881;28;20038;-42
2023/09/27 04:52:04;;;;;;;15.65;10.27;;;13.50;99.90;;;;;;5059959;28;20104;-40
2023/09/27 04:54:31;;;;;;;17.50;9.80;;;13.50;99.90;;;;;;5048724;28;20037;-41
2023/09/27 04:56:59;;;;;;;18.95;10.40;;;13.40;99.90;;;;;;5042917;28;20049;-40
2023/09/27 04:59:26;;;;;;;22.60;10.30;;;13.40;99.90;;;;;;5048278;28;20053;-40
2023/09/27 05:01:53;;;;;;;18.55;10.05;;;13.40;99.90;;;;;;5047570;28;20490;-39
2023/09/27 05:04:21;;;;;;;14.63;10.02;;;13.40;99.90;;;;;;5043480;28;20055;-38
2023/09/27 05:06:48;;;;;;;17.17;10.70;;;13.40;99.90;;;;;;5039455;28;20052;-41
2023/09/27 05:09:18;;;;;;;19.67;11.20;;;13.50;99.90;;;;;;5051547;28;20075;-37
2023/09/27 05:11:46;;;;;;;16.92;10.40;;;13.50;99.90;;;;;;5063096;28;20044;-37
2023/09/27 05:14:14;;;;;;;16.60;10.05;;;13.60;99.90;;;;;;5060609;28;20135;-41
2023/09/27 05:16:41;;;;;;;17.52;11.30;;;13.60;99.90;;;;;;5063359;28;20044;-40
2023/09/27 05:19:09;;;;;;;20.88;10.93;;;13.60;99.90;;;;;;5057935;28;20057;-41
2023/09/27 05:21:36;;;;;;;16.83;11.18;;;13.70;99.90;;;;;;5070584;28;20199;-38
2023/09/27 05:24:04;;;;;;;20.27;11.40;;;13.70;99.90;;;;;;5058904;28;20041;-38
2023/09/27 05:26:31;;;;;;;18.52;11.45;;;13.70;99.90;;;;;;5053600;28;20135;-36
2023/09/27 05:28:59;;;;;;;18.40;11.38;;;13.60;99.90;;;;;;5051612;28;20051;-39
2023/09/27 05:31:26;;;;;;;18.00;11.82;;;13.60;99.90;;;;;;5035977;28;20073;-39
2023/09/27 05:33:53;;;;;;;29.13;11.20;;;13.70;99.90;;;;;;5043998;28;20410;-40
2023/09/27 05:36:20;;;;;;;17.65;11.30;;;13.70;99.90;;;;;;5047215;28;20071;-40
2023/09/27 05:38:48;;;;;;;15.50;10.77;;;13.70;99.90;;;;;;5042840;28;20229;-39
2023/09/27 05:41:15;;;;;;;19.67;10.60;;;13.70;99.90;;;;;;5049790;28;20091;-38
2023/09/27 05:43:42;;;;;;;17.80;11.23;;;13.80;99.90;;;;;;5045021;28;20037;-36
2023/09/27 05:46:10;;;;;;;17.02;11.32;;;13.80;99.90;;;;;;5049137;28;20102;-37
2023/09/27 05:48:37;;;;;;;20.52;11.02;;;13.80;99.90;;;;;;5051210;28;20056;-40
2023/09/27 05:51:05;;;;;;;19.95;11.68;;;13.80;99.90;;;;;;5053583;28;20057;-40
2023/09/27 05:53:32;;;;;;;16.10;11.18;;;13.80;99.90;;;;;;5049173;28;20064;-41
2023/09/27 05:56:03;;;;;;;17.77;11.13;;;13.80;99.90;;;;;;5044445;28;20064;-37
2023/09/27 05:58:35;;;;;;;20.83;12.55;;;13.80;99.90;;;;;;5043091;28;20503;-37
2023/09/27 06:01:04;;;;;;;19.13;12.18;;;13.90;99.90;;;;;;5049133;28;20101;-40
2023/09/27 06:03:32;;;;;;;18.10;12.18;;;13.90;99.90;;;;;;5046844;28;20138;-43
2023/09/27 06:05:59;;;;;;;21.05;13.02;;;13.90;99.90;;;;;;5042196;28;20554;-38
2023/09/27 06:08:26;;;;;;;19.90;12.90;;;14.00;99.90;;;;;;5051201;28;20460;-39
2023/09/27 06:10:55;;;;;;;23.40;13.75;;;14.00;99.90;;;;;;5042092;28;20044;-40
2023/09/27 06:13:23;;;;;;;20.58;12.95;;;14.10;99.90;;;;;;5053683;28;20399;-41
2023/09/27 06:15:51;;;;;;;17.73;11.88;;;14.10;99.90;;;;;;5035702;28;20049;-39
2023/09/27 06:18:19;;;;;;;20.02;13.43;;;14.20;99.90;;;;;;5045674;28;20140;-39
2023/09/27 06:20:47;;;;;;;26.30;14.93;;;14.30;99.90;;;;;;5046893;28;20049;-41
2023/09/27 06:23:14;;;;;;;27.02;15.38;;;14.40;99.90;;;;;;5046181;28;20045;-39
2023/09/27 06:25:43;;;;;;;28.50;16.88;;;14.40;99.90;;;;;;5052814;28;20528;-39
2023/09/27 06:28:13;;;;;;;34.42;18.33;;;14.20;99.90;;;;;;5048985;28;20136;-41
2023/09/27 06:30:41;;;;;;;32.13;17.10;;;14.20;99.90;;;;;;5049530;28;20044;-38
2023/09/27 06:33:09;;;;;;;33.67;17.80;;;14.40;99.90;;;;;;5049740;28;20069;-40
2023/09/27 06:35:37;;;;;;;32.88;19.50;;;14.40;99.90;;;;;;5043110;28;20045;-41
2023/09/27 06:38:05;;;;;;;35.83;20.50;;;14.60;99.90;;;;;;5046759;28;20255;-40
2023/09/27 06:40:33;;;;;;;40.03;22.63;;;14.80;99.90;;;;;;5049375;28;20055;-41
2023/09/27 06:43:00;;;;;;;31.38;20.38;;;15.00;99.90;;;;;;5046118;28;20053;-38
2023/09/27 06:45:28;;;;;;;33.33;18.50;;;15.10;99.90;;;;;;5054437;28;20124;-39
2023/09/27 06:47:56;;;;;;;35.83;18.63;;;15.20;99.90;;;;;;5036450;28;20542;-40
2023/09/27 06:50:23;;;;;;;35.53;20.25;;;15.20;99.90;;;;;;5048316;28;20065;-38
2023/09/27 06:52:51;;;;;;;36.42;19.67;;;15.20;99.90;;;;;;5049083;28;20073;-38
2023/09/27 06:55:33;;;;;;;;;;;15.30;99.90;;;;;;5049500;28;20132;-41
2023/09/27 06:58:00;;;;;;;39.05;19.95;;;15.40;99.90;;;;;;5048189;28;19975;-42
2023/09/27 07:00:27;;;;;;;34.05;19.40;;;15.40;99.90;;;;;;5055785;28;20082;-41
2023/09/27 07:02:55;;;;;;;40.42;21.65;;;15.50;99.90;;;;;;5034966;28;20145;-38
2023/09/27 07:05:23;;;;;;;41.10;20.67;;;15.70;99.90;;;;;;5044778;28;20140;-41
2023/09/27 07:07:51;;;;;;;37.70;19.75;;;15.90;99.90;;;;;;5052408;28;20048;-40
2023/09/27 07:10:21;;;;;;;37.97;22.83;;;16.00;99.90;;;;;;5052124;28;20056;-41
2023/09/27 07:12:48;;;;;;;37.13;20.40;;;16.10;99.90;;;;;;5049084;28;20061;-41
2023/09/27 07:15:16;;;;;;;34.80;20.58;;;16.00;99.90;;;;;;5044201;28;20071;-40
2023/09/27 07:17:44;;;;;;;33.10;19.45;;;16.00;99.90;;;;;;5036176;28;20061;-38
2023/09/27 07:22:45;;;;;;;26.27;17.00;;;16.00;99.90;;;;;;5049589;28;20067;-40
2023/09/27 07:25:16;;;;;;;26.55;16.48;;;16.00;99.90;;;;;;5040420;28;20052;-42
2023/09/27 07:27:43;;;;;;;31.00;18.10;;;16.00;99.90;;;;;;5049730;28;20466;-41
2023/09/27 07:30:11;;;;;;;25.98;16.38;;;16.10;99.90;;;;;;5048913;28;20041;-40
2023/09/27 07:32:41;;;;;;;30.67;18.45;;;16.10;99.90;;;;;;5046571;28;20029;-39
2023/09/27 07:35:09;;;;;;;33.33;19.92;;;16.20;99.90;;;;;;5048266;28;20037;-41
2023/09/27 07:37:37;;;;;;;25.85;15.93;;;16.30;99.90;;;;;;5047169;28;20108;-42
2023/09/27 07:40:11;;;;;;;28.42;18.35;;;16.40;99.90;;;;;;5049681;28;20041;-42
2023/09/27 07:42:42;;;;;;;24.42;17.40;;;16.50;99.90;;;;;;5046064;28;20107;-42
2023/09/27 07:45:22;;;;;;;25.23;14.70;;;16.60;99.90;;;;;;5038555;28;20045;-40
2023/09/27 07:47:53;;;;;;;26.27;16.27;;;16.70;99.90;;;;;;5048477;28;20059;-39
2023/09/27 07:50:26;;;;;;;26.70;16.15;;;16.70;99.90;;;;;;5048289;28;20048;-42
2023/09/27 07:53:03;;;;;;;27.27;17.05;;;16.70;99.90;;;;;;5040561;28;20037;-38
2023/09/27 07:55:33;;;;;;;26.73;15.95;;;16.80;99.90;;;;;;5037607;28;20065;-41
2023/09/27 07:58:03;;;;;;;27.88;17.30;;;17.00;99.90;;;;;;5048330;28;20067;-39
2023/09/27 08:00:33;;;;;;;22.40;15.68;;;17.10;99.90;;;;;;5045096;28;20099;-44
2023/09/27 08:03:00;;;;;;;19.83;14.73;;;17.20;99.90;;;;;;5034687;28;20053;-40
2023/09/27 08:05:28;;;;;;;21.92;16.02;;;17.30;99.90;;;;;;5047622;28;20151;-38
2023/09/27 08:07:55;;;;;;;19.00;14.98;;;17.30;99.90;;;;;;5035487;28;20037;-40
2023/09/27 08:10:23;;;;;;;21.75;14.05;;;17.30;99.90;;;;;;5047235;28;20044;-41
2023/09/27 08:12:50;;;;;;;19.05;14.48;;;17.40;99.90;;;;;;5042730;28;20053;-37
2023/09/27 08:15:18;;;;;;;19.55;14.50;;;17.60;99.90;;;;;;5044240;28;20057;-39
2023/09/27 08:17:47;;;;;;;19.73;15.48;;;17.70;99.90;;;;;;5048940;28;20618;-40
2023/09/27 08:20:15;;;;;;;22.60;16.75;;;17.80;99.90;;;;;;5052716;28;20056;-42
2023/09/27 08:22:42;;;;;;;22.17;16.48;;;17.90;99.90;;;;;;5061273;28;20040;-41
2023/09/27 08:25:14;;;;;;;21.50;15.68;;;17.90;99.90;;;;;;5055418;28;20104;-40
2023/09/27 08:27:43;;;;;;;26.05;17.23;;;18.10;99.90;;;;;;5059329;28;20077;-41
2023/09/27 08:30:11;;;;;;;24.38;17.30;;;18.10;99.90;;;;;;5058253;28;20037;-41
2023/09/27 08:32:40;;;;;;;25.48;17.10;;;18.10;99.90;;;;;;5048410;28;20410;-39
2023/09/27 08:35:10;;;;;;;22.30;16.65;;;18.10;99.90;;;;;;5052559;28;20037;-39
2023/09/27 08:37:37;;;;;;;25.33;17.73;;;18.30;99.90;;;;;;5057032;28;20052;-42
2023/09/27 08:40:07;;;;;;;24.05;16.92;;;17.80;99.90;;;;;;5055533;28;20049;-38
2023/09/27 08:42:34;;;;;;;25.75;16.30;;;17.90;99.90;;;;;;5038387;28;20047;-38
2023/09/27 08:45:06;;;;;;;25.10;17.58;;;18.20;99.90;;;;;;5036103;28;20067;-39
2023/09/27 08:47:34;;;;;;;27.15;18.70;;;18.40;99.90;;;;;;5044006;28;20054;-38
2023/09/27 08:50:01;;;;;;;21.77;15.75;;;18.70;99.90;;;;;;5036948;28;20041;-41
2023/09/27 08:52:30;;;;;;;26.17;20.02;;;18.90;99.90;;;;;;5037043;28;20385;-39
2023/09/27 08:54:57;;;;;;;20.13;16.63;;;19.00;99.90;;;;;;5047124;28;20537;-41
2023/09/27 08:57:28;;;;;;;20.17;16.52;;;19.00;99.90;;;;;;5042577;28;20049;-39
2023/09/27 08:59:56;;;;;;;22.17;16.10;;;19.10;99.90;;;;;;5042259;28;20064;-38
2023/09/27 09:02:24;;;;;;;35.63;22.83;;;19.30;99.90;;;;;;5047148;28;20045;-40
2023/09/27 09:04:51;;;;;;;23.83;17.85;;;19.50;99.90;;;;;;5039158;28;20049;-41
2023/09/27 09:07:18;;;;;;;24.40;18.13;;;19.70;99.90;;;;;;5044600;28;20097;-40
2023/09/27 09:09:46;;;;;;;23.13;17.27;;;19.50;99.90;;;;;;5046598;28;20068;-41
2023/09/27 09:12:13;;;;;;;26.27;18.25;;;19.70;99.90;;;;;;5059772;28;20028;-42
2023/09/27 09:14:43;;;;;;;24.02;18.35;;;19.60;99.90;;;;;;5046297;28;20047;-40
2023/09/27 09:17:11;;;;;;;22.80;17.70;;;19.60;99.90;;;;;;5048643;28;20103;-38
2023/09/27 09:19:41;;;;;;;26.30;17.30;;;19.80;99.90;;;;;;5047602;28;20276;-42
2023/09/27 09:22:12;;;;;;;22.83;16.98;;;19.70;99.90;;;;;;5046985;28;20044;-40
2023/09/27 09:24:43;;;;;;;23.98;17.42;;;19.80;99.90;;;;;;5048275;28;20048;-41
2023/09/27 09:27:15;;;;;;;22.10;16.88;;;19.80;99.90;;;;;;5049399;28;20039;-42
2023/09/27 09:29:48;;;;;;;20.73;16.65;;;20.10;99.90;;;;;;5048287;28;20042;-39
2023/09/27 09:32:22;;;;;;;21.02;15.52;;;20.20;99.90;;;;;;5050548;28;20049;-39
2023/09/27 09:34:53;;;;;;;28.00;17.25;;;20.30;99.90;;;;;;5042339;28;20106;-40
2023/09/27 09:37:24;;;;;;;16.85;14.65;;;20.30;99.90;;;;;;5044567;28;20057;-39
2023/09/27 09:39:52;;;;;;;19.77;15.10;;;20.40;99.90;;;;;;5051689;28;20064;-42
2023/09/27 09:42:33;;;;;;;20.77;15.38;;;20.50;99.90;;;;;;5049772;28;20076;-41
2023/09/27 09:45:10;;;;;;;18.00;14.68;;;20.70;99.90;;;;;;5044406;28;20053;-39
2023/09/27 09:47:39;;;;;;;23.27;15.45;;;20.80;99.90;;;;;;5049229;28;20099;-40
2023/09/27 09:50:08;;;;;;;21.58;14.45;;;20.90;99.90;;;;;;5048725;28;20060;-41
2023/09/27 09:52:38;;;;;;;22.15;16.23;;;21.10;99.90;;;;;;5045556;28;20068;-41
2023/09/27 09:55:08;;;;;;;21.95;15.35;;;21.30;99.90;;;;;;5048910;28;20040;-40
2023/09/27 09:58:17;;;;;;;18.17;13.82;;;21.60;99.90;;;;;;5061655;28;20033;-38
2023/09/27 10:00:49;;;;;;;20.63;14.98;;;21.90;99.90;;;;;;5040581;28;20445;-41
2023/09/27 10:03:22;;;;;;;20.98;16.60;;;22.20;99.90;;;;;;5041786;28;20045;-43
2023/09/27 10:05:51;;;;;;;18.48;15.38;;;22.10;99.90;;;;;;5052477;28;20056;-40
2023/09/27 10:08:19;;;;;;;22.73;16.98;;;22.00;99.90;;;;;;5054900;28;20049;-39
2023/09/27 10:10:47;;;;;;;26.38;20.00;;;22.10;99.90;;;;;;5052142;28;20509;-41
2023/09/27 10:13:18;;;;;;;24.75;19.48;;;22.20;99.90;;;;;;5042946;28;20137;-42
2023/09/27 10:15:45;;;;;;;25.58;19.35;;;22.00;99.90;;;;;;5053105;28;20044;-39
2023/09/27 10:18:22;;;;;;;27.50;19.45;;;22.30;99.90;;;;;;5053305;28;20120;-38
2023/09/27 10:21:09;;;;;;;24.88;18.08;;;22.50;99.90;;;;;;5046900;28;20057;-43
2023/09/27 10:23:45;;;;;;;23.80;18.35;;;22.60;99.90;;;;;;5050893;28;20044;-41
2023/09/27 10:26:28;;;;;;;22.00;15.93;;;22.70;99.90;;;;;;5049301;28;20057;-38
2023/09/27 10:29:10;;;;;;;20.25;15.82;;;22.90;99.90;;;;;;5056916;28;20052;-42
2023/09/27 10:31:57;;;;;;;16.83;14.88;;;23.30;99.90;;;;;;5054820;28;20362;-39
2023/09/27 10:34:28;;;;;;;18.55;14.65;;;23.70;99.90;;;;;;5054267;28;20045;-40
2023/09/27 10:37:00;;;;;;;24.55;15.63;;;23.90;99.90;;;;;;5047887;28;20437;-38
2023/09/27 10:40:17;;;;;;;19.13;14.85;;;24.20;99.90;;;;;;5039889;28;20092;-38
2023/09/27 10:42:44;;;;;;;22.58;16.65;;;24.60;99.90;;;;;;5044542;28;20048;-40
2023/09/27 10:45:12;;;;;;;20.13;13.93;;;24.90;99.90;;;;;;5044296;28;20037;-38
2023/09/27 10:47:40;;;;;;;20.13;15.23;;;24.90;99.90;;;;;;5044423;28;20104;-41
2023/09/27 10:50:09;;;;;;;15.05;13.23;;;24.90;99.90;;;;;;5041825;28;20060;-38
2023/09/27 10:52:38;;;;;;;12.15;10.98;;;25.10;99.90;;;;;;5047405;28;20045;-38
2023/09/27 10:55:13;;;;;;;11.90;10.02;;;25.50;99.90;;;;;;5046920;28;20051;-41
2023/09/27 10:57:41;;;;;;;13.55;10.70;;;25.90;99.90;;;;;;5045115;28;20495;-38
2023/09/27 11:00:12;;;;;;;12.57;9.82;;;26.30;99.90;;;;;;5045682;28;20045;-41
2023/09/27 11:02:41;;;;;;;12.90;9.75;;;26.50;99.90;;;;;;5045856;28;20082;-39
2023/09/27 11:05:09;;;;;;;11.02;9.70;;;26.70;99.90;;;;;;5045889;28;20056;-38
2023/09/27 11:07:50;;;;;;;10.65;9.00;;;27.00;99.90;;;;;;5044068;28;20049;-37
2023/09/27 11:10:34;;;;;;;10.38;9.18;;;27.30;99.90;;;;;;5045843;28;20067;-38
2023/09/27 11:13:10;;;;;;;10.40;9.48;;;27.40;99.90;;;;;;5039419;28;20041;-40
2023/09/27 11:15:41;;;;;;;10.05;8.95;;;27.60;99.90;;;;;;5049203;28;20072;-40
2023/09/27 11:18:09;;;;;;;9.60;8.60;;;28.00;99.90;;;;;;5050147;28;20445;-39
2023/09/27 11:20:42;;;;;;;11.35;9.50;;;28.10;99.90;;;;;;5047103;28;20076;-42
2023/09/27 11:23:09;;;;;;;12.27;10.23;;;28.60;99.90;;;;;;5048304;28;20425;-39
2023/09/27 11:25:37;;;;;;;11.02;8.95;;;28.70;99.90;;;;;;5045723;28;20381;-38
2023/09/27 11:28:05;;;;;;;9.50;8.50;;;28.50;99.90;;;;;;5048870;28;20033;-42
2023/09/27 11:30:34;;;;;;;14.35;10.07;;;29.00;99.90;;;;;;5048906;28;20037;-42
2023/09/27 11:33:06;;;;;;;11.07;9.90;;;28.80;99.90;;;;;;5045780;28;20362;-38
2023/09/27 11:35:34;;;;;;;11.48;9.25;;;28.80;99.90;;;;;;5048143;28;20045;-41
2023/09/27 11:38:09;;;;;;;10.40;9.38;;;28.90;99.90;;;;;;5044047;28;20441;-40
2023/09/27 11:40:41;;;;;;;10.80;9.57;;;29.20;99.90;;;;;;5040167;28;20701;-40
2023/09/27 11:43:09;;;;;;;12.07;9.95;;;29.20;99.90;;;;;;5043664;28;20438;-38
2023/09/27 11:45:48;;;;;;;11.00;9.88;;;29.40;99.90;;;;;;5047936;28;20048;-41
2023/09/27 11:48:29;;;;;;;10.98;9.88;;;29.80;99.90;;;;;;5040595;28;20091;-38
2023/09/27 11:50:58;;;;;;;12.10;9.73;;;30.20;99.90;;;;;;5042500;28;20135;-38
2023/09/27 11:53:26;;;;;;;12.93;11.55;;;30.70;99.90;;;;;;5048449;28;20049;-40
2023/09/27 11:55:55;;;;;;;11.38;9.82;;;30.60;99.90;;;;;;5055161;28;20044;-41
2023/09/27 11:58:23;;;;;;;13.90;10.32;;;30.50;99.90;;;;;;5062049;28;20037;-40
2023/09/27 12:00:51;;;;;;;11.70;10.50;;;30.90;99.90;;;;;;5044606;28;20092;-42
2023/09/27 12:03:19;;;;;;;12.70;10.40;;;31.20;99.90;;;;;;5053801;28;20505;-42
2023/09/27 12:05:48;;;;;;;12.90;9.55;;;31.50;99.90;;;;;;5050914;28;20444;-39
2023/09/27 12:08:15;;;;;;;15.45;11.52;;;31.70;99.90;;;;;;5044987;28;20040;-38
2023/09/27 12:10:43;;;;;;;16.02;11.18;;;32.30;99.90;;;;;;5048177;28;20068;-40
2023/09/27 12:13:10;;;;;;;13.65;10.35;;;32.20;99.90;;;;;;5049405;28;20036;-36
2023/09/27 12:15:37;;;;;;;14.50;10.60;;;32.00;99.90;;;;;;5043646;28;20037;-36
2023/09/27 12:18:04;;;;;;;11.07;10.07;;;32.40;99.90;;;;;;5037194;28;20049;-40
2023/09/27 12:20:33;;;;;;;12.43;10.10;;;32.30;99.90;;;;;;5043949;28;20501;-37
2023/09/27 12:23:08;;;;;;;11.73;10.50;;;32.90;99.90;;;;;;5046163;28;20059;-38
2023/09/27 12:25:37;;;;;;;11.10;10.00;;;32.90;99.90;;;;;;5044556;28;20136;-40
2023/09/27 12:28:05;;;;;;;15.65;10.10;;;33.40;99.90;;;;;;5048571;28;20041;-39
2023/09/27 12:30:32;;;;;;;12.55;9.02;;;33.70;99.90;;;;;;5044918;28;20045;-39
2023/09/27 12:33:00;;;;;;;10.82;9.68;;;33.90;98.90;;;;;;5044976;28;20512;-37
2023/09/27 12:35:27;;;;;;;14.85;9.27;;;34.30;98.00;;;;;;5044753;28;20037;-40
2023/09/27 12:37:55;;;;;;;10.85;9.43;;;34.80;96.40;;;;;;5047340;28;20044;-40
2023/09/27 12:40:24;;;;;;;11.43;9.25;;;35.30;94.60;;;;;;5039975;28;20049;-39
2023/09/27 12:42:51;;;;;;;10.40;9.30;;;35.50;93.60;;;;;;5043877;28;20542;-40